sensor_id;sensor_type;location;lat;lon;timestamp;pressure;altitude;pressure_sealevel;temperature;humidity
42289;BME280;30230;47.520;19.016;2022-09-27T00:01:27;97895.53;;;12.21;100.00
42289;BME280;30230;47.520;19.016;2022-09-27T00:03:29;97897.16;;;12.22;100.00
42289;BME280;30230;47.520;19.016;2022-09-27T00:05:29;97892.72;;;12.16;100.00
42289;BME280;30230;47.520;19.016;2022-09-27T00:07:30;97902.97;;;12.14;100.00
42289;BME280;30230;47.520;19.016;2022-09-27T00:09:31;97897.56;;;12.14;100.00
42289;BME280;30230;47.520;19.016;2022-09-27T00:11:34;97897.00;;;12.12;100.00
42289;BME280;30230;47.520;19.016;2022-09-27T00:13:35;97890.19;;;12.10;100.00
42289;BME280;30230;47.520;19.016;2022-09-27T00:15:35;97892.91;;;12.10;100.00
42289;BME280;30230;47.520;19.016;2022-09-27T00:17:37;97890.44;;;12.08;100.00
42289;BME280;30230;47.520;19.016;2022-09-27T00:19:37;97888.53;;;12.09;100.00
42289;BME280;30230;47.520;19.016;2022-09-27T00:21:38;97884.44;;;12.06;100.00
42289;BME280;30230;47.520;19.016;2022-09-27T00:23:39;97874.63;;;12.00;100.00
42289;BME280;30230;47.520;19.016;2022-09-27T00:25:40;97884.44;;;12.06;100.00
42289;BME280;30230;47.520;19.016;2022-09-27T00:27:41;97884.44;;;12.06;100.00
42289;BME280;30230;47.520;19.016;2022-09-27T00:29:41;97874.13;;;12.03;100.00
42289;BME280;30230;47.520;19.016;2022-09-27T00:31:42;97868.94;;;12.02;100.00
42289;BME280;30230;47.520;19.016;2022-09-27T00:33:43;97871.41;;;12.03;100.00
42289;BME280;30230;47.520;19.016;2022-09-27T00:35:43;97862.47;;;12.03;100.00
42289;BME280;30230;47.520;19.016;2022-09-27T00:37:47;97867.06;;;12.02;100.00
42289;BME280;30230;47.520;19.016;2022-09-27T00:39:47;97867.06;;;12.02;100.00
42289;BME280;30230;47.520;19.016;2022-09-27T00:41:48;97860.00;;;12.01;100.00
42289;BME280;30230;47.520;19.016;2022-09-27T00:45:59;97864.34;;;12.02;100.00
42289;BME280;30230;47.520;19.016;2022-09-27T00:48:03;97866.72;;;11.98;100.00
42289;BME280;30230;47.520;19.016;2022-09-27T00:50:18;97861.91;;;12.01;100.00
42289;BME280;30230;47.520;19.016;2022-09-27T00:52:21;97861.09;;;12.00;100.00
42289;BME280;30230;47.520;19.016;2022-09-27T00:54:25;97854.59;;;12.01;100.00
42289;BME280;30230;47.520;19.016;2022-09-27T00:56:29;97847.88;;;12.04;100.00
42289;BME280;30230;47.520;19.016;2022-09-27T00:58:34;97844.94;;;12.05;100.00
42289;BME280;30230;47.520;19.016;2022-09-27T01:00:37;97847.38;;;12.07;100.00
42289;BME280;30230;47.520;19.016;2022-09-27T01:02:47;97849.00;;;12.08;100.00
42289;BME280;30230;47.520;19.016;2022-09-27T01:04:49;97844.69;;;12.07;100.00
42289;BME280;30230;47.520;19.016;2022-09-27T01:06:50;97848.19;;;12.07;100.00
42289;BME280;30230;47.520;19.016;2022-09-27T01:08:50;97851.97;;;12.06;100.00
42289;BME280;30230;47.520;19.016;2022-09-27T01:18:22;97843.41;;;12.14;100.00
42289;BME280;30230;47.520;19.016;2022-09-27T01:30:32;97825.41;;;12.03;100.00
42289;BME280;30230;47.520;19.016;2022-09-27T01:34:54;97817.72;;;11.95;100.00
42289;BME280;30230;47.520;19.016;2022-09-27T01:39:15;97813.88;;;11.91;100.00
42289;BME280;30230;47.520;19.016;2022-09-27T01:41:26;97815.00;;;11.95;100.00
42289;BME280;30230;47.520;19.016;2022-09-27T01:43:36;97811.22;;;11.96;100.00
42289;BME280;30230;47.520;19.016;2022-09-27T01:46:07;97802.31;;;11.95;100.00
42289;BME280;30230;47.520;19.016;2022-09-27T01:48:15;97802.38;;;12.01;100.00
42289;BME280;30230;47.520;19.016;2022-09-27T01:50:23;97800.47;;;12.01;100.00
42289;BME280;30230;47.520;19.016;2022-09-27T01:52:36;97797.53;;;12.03;100.00
42289;BME280;30230;47.520;19.016;2022-09-27T01:54:46;97788.59;;;12.02;100.00
42289;BME280;30230;47.520;19.016;2022-09-27T01:56:51;97782.63;;;12.00;100.00
42289;BME280;30230;47.520;19.016;2022-09-27T01:59:07;97779.97;;;12.05;100.00
42289;BME280;30230;47.520;19.016;2022-09-27T02:01:11;97781.03;;;12.04;100.00
42289;BME280;30230;47.520;19.016;2022-09-27T02:03:15;97771.94;;;11.93;100.00
42289;BME280;30230;47.520;19.016;2022-09-27T02:05:19;97778.69;;;11.91;100.00
42289;BME280;30230;47.520;19.016;2022-09-27T02:07:26;97780.97;;;11.82;100.00
42289;BME280;30230;47.520;19.016;2022-09-27T02:09:36;97783.03;;;11.75;100.00
42289;BME280;30230;47.520;19.016;2022-09-27T02:11:41;97778.34;;;11.70;100.00
42289;BME280;30230;47.520;19.016;2022-09-27T02:13:59;97778.03;;;11.67;100.00
42289;BME280;30230;47.520;19.016;2022-09-27T02:18:59;97770.81;;;11.56;100.00
42289;BME280;30230;47.520;19.016;2022-09-27T02:21:04;97776.66;;;11.47;100.00
42289;BME280;30230;47.520;19.016;2022-09-27T02:23:20;97782.53;;;11.44;100.00
42289;BME280;30230;47.520;19.016;2022-09-27T02:25:23;97786.44;;;11.37;100.00
42289;BME280;30230;47.520;19.016;2022-09-27T02:27:39;97780.66;;;11.28;100.00
42289;BME280;30230;47.520;19.016;2022-09-27T02:29:58;97776.53;;;11.26;100.00
42289;BME280;30230;47.520;19.016;2022-09-27T02:31:59;97770.81;;;11.22;100.00
42289;BME280;30230;47.520;19.016;2022-09-27T02:34:04;97774.56;;;11.21;100.00
42289;BME280;30230;47.520;19.016;2022-09-27T02:36:06;97770.22;;;11.20;100.00
42289;BME280;30230;47.520;19.016;2022-09-27T02:38:08;97766.44;;;11.21;100.00
42289;BME280;30230;47.520;19.016;2022-09-27T02:40:09;97772.63;;;11.16;100.00
42289;BME280;30230;47.520;19.016;2022-09-27T02:42:10;97767.44;;;11.15;100.00
42289;BME280;30230;47.520;19.016;2022-09-27T02:44:12;97766.88;;;11.13;100.00
42289;BME280;30230;47.520;19.016;2022-09-27T02:46:27;97773.34;;;11.12;100.00
42289;BME280;30230;47.520;19.016;2022-09-27T03:00:25;97765.28;;;11.00;100.00
42289;BME280;30230;47.520;19.016;2022-09-27T03:04:43;97755.97;;;10.91;100.00
42289;BME280;30230;47.520;19.016;2022-09-27T03:06:47;97757.97;;;10.84;100.00
42289;BME280;30230;47.520;19.016;2022-09-27T03:08:49;97756.25;;;10.78;100.00
42289;BME280;30230;47.520;19.016;2022-09-27T03:10:50;97754.84;;;10.75;100.00
42289;BME280;30230;47.520;19.016;2022-09-27T03:12:51;97753.19;;;10.74;100.00
42289;BME280;30230;47.520;19.016;2022-09-27T03:14:57;97749.78;;;10.79;100.00
42289;BME280;30230;47.520;19.016;2022-09-27T03:16:59;97742.25;;;10.81;100.00
42289;BME280;30230;47.520;19.016;2022-09-27T03:18:59;97750.13;;;10.82;100.00
42289;BME280;30230;47.520;19.016;2022-09-27T03:21:00;97748.22;;;10.83;100.00
42289;BME280;30230;47.520;19.016;2022-09-27T03:23:00;97744.72;;;10.82;100.00
42289;BME280;30230;47.520;19.016;2022-09-27T03:25:01;97741.75;;;10.84;100.00
42289;BME280;30230;47.520;19.016;2022-09-27T03:27:01;97739.88;;;10.84;100.00
42289;BME280;30230;47.520;19.016;2022-09-27T03:29:02;97738.34;;;10.88;100.00
42289;BME280;30230;47.520;19.016;2022-09-27T03:31:03;97736.78;;;10.92;100.00
42289;BME280;30230;47.520;19.016;2022-09-27T03:33:03;97740.06;;;10.94;100.00
42289;BME280;30230;47.520;19.016;2022-09-27T03:35:04;97745.81;;;10.98;100.00
42289;BME280;30230;47.520;19.016;2022-09-27T03:37:04;97745.06;;;11.03;100.00
42289;BME280;30230;47.520;19.016;2022-09-27T03:39:05;97737.78;;;11.03;100.00
42289;BME280;30230;47.520;19.016;2022-09-27T03:41:05;97731.31;;;11.04;100.00
42289;BME280;30230;47.520;19.016;2022-09-27T03:43:06;97731.91;;;11.06;100.00
42289;BME280;30230;47.520;19.016;2022-09-27T03:45:06;97736.56;;;11.11;100.00
42289;BME280;30230;47.520;19.016;2022-09-27T03:47:07;97735.25;;;11.13;100.00
42289;BME280;30230;47.520;19.016;2022-09-27T03:49:08;97733.13;;;11.15;100.00
42289;BME280;30230;47.520;19.016;2022-09-27T03:51:08;97735.34;;;11.18;100.00
42289;BME280;30230;47.520;19.016;2022-09-27T03:53:11;97726.97;;;11.20;100.00
42289;BME280;30230;47.520;19.016;2022-09-27T03:55:12;97733.47;;;11.19;100.00
42289;BME280;30230;47.520;19.016;2022-09-27T03:57:13;97732.91;;;11.17;100.00
42289;BME280;30230;47.520;19.016;2022-09-27T03:59:13;97731.81;;;11.18;100.00
42289;BME280;30230;47.520;19.016;2022-09-27T04:01:14;97729.13;;;11.18;100.00
42289;BME280;30230;47.520;19.016;2022-09-27T04:03:14;97721.31;;;11.21;100.00
42289;BME280;30230;47.520;19.016;2022-09-27T04:05:16;97720.84;;;11.25;100.00
42289;BME280;30230;47.520;19.016;2022-09-27T04:07:17;97730.59;;;11.26;100.00
42289;BME280;30230;47.520;19.016;2022-09-27T04:09:17;97727.66;;;11.27;100.00
42289;BME280;30230;47.520;19.016;2022-09-27T04:11:18;97730.38;;;11.27;100.00
42289;BME280;30230;47.520;19.016;2022-09-27T04:13:18;97730.66;;;11.31;100.00
42289;BME280;30230;47.520;19.016;2022-09-27T04:15:19;97733.38;;;11.31;100.00
42289;BME280;30230;47.520;19.016;2022-09-27T04:17:20;97729.84;;;11.30;100.00
42289;BME280;30230;47.520;19.016;2022-09-27T04:19:20;97727.41;;;11.29;100.00
42289;BME280;30230;47.520;19.016;2022-09-27T04:21:21;97729.28;;;11.28;100.00
42289;BME280;30230;47.520;19.016;2022-09-27T04:23:21;97726.59;;;11.28;100.00
42289;BME280;30230;47.520;19.016;2022-09-27T04:25:23;97720.94;;;11.30;100.00
42289;BME280;30230;47.520;19.016;2022-09-27T04:27:23;97713.38;;;11.32;100.00
42289;BME280;30230;47.520;19.016;2022-09-27T04:29:24;97718.56;;;11.33;100.00
42289;BME280;30230;47.520;19.016;2022-09-27T04:31:25;97715.03;;;11.33;100.00
42289;BME280;30230;47.520;19.016;2022-09-27T04:33:25;97708.56;;;11.34;100.00
42289;BME280;30230;47.520;19.016;2022-09-27T04:35:26;97709.94;;;11.36;100.00
42289;BME280;30230;47.520;19.016;2022-09-27T04:37:44;97699.38;;;11.35;100.00
42289;BME280;30230;47.520;19.016;2022-09-27T04:39:45;97704.06;;;11.39;100.00
42289;BME280;30230;47.520;19.016;2022-09-27T04:41:46;97708.72;;;11.44;100.00
42289;BME280;30230;47.520;19.016;2022-09-27T04:43:47;97697.91;;;11.44;100.00
42289;BME280;30230;47.520;19.016;2022-09-27T04:45:47;97706.28;;;11.42;100.00
42289;BME280;30230;47.520;19.016;2022-09-27T04:47:49;97699.47;;;11.40;100.00
42289;BME280;30230;47.520;19.016;2022-09-27T04:49:49;97702.72;;;11.42;100.00
42289;BME280;30230;47.520;19.016;2022-09-27T04:51:49;97705.44;;;11.42;100.00
42289;BME280;30230;47.520;19.016;2022-09-27T04:53:50;97705.44;;;11.42;100.00
42289;BME280;30230;47.520;19.016;2022-09-27T04:55:52;97709.78;;;11.43;100.00
42289;BME280;30230;47.520;19.016;2022-09-27T04:57:53;97710.63;;;11.43;100.00
42289;BME280;30230;47.520;19.016;2022-09-27T04:59:53;97708.22;;;11.47;100.00
42289;BME280;30230;47.520;19.016;2022-09-27T05:01:53;97707.16;;;11.48;100.00
42289;BME280;30230;47.520;19.016;2022-09-27T05:03:54;97699.28;;;11.46;100.00
42289;BME280;30230;47.520;19.016;2022-09-27T05:05:54;97691.50;;;11.50;100.00
42289;BME280;30230;47.520;19.016;2022-09-27T05:07:55;97694.84;;;11.57;100.00
42289;BME280;30230;47.520;19.016;2022-09-27T05:09:55;97687.88;;;11.61;100.00
42289;BME280;30230;47.520;19.016;2022-09-27T05:11:56;97680.56;;;11.62;100.00
42289;BME280;30230;47.520;19.016;2022-09-27T05:13:56;97683.53;;;11.60;100.00
42289;BME280;30230;47.520;19.016;2022-09-27T05:16:03;97691.66;;;11.60;100.00
42289;BME280;30230;47.520;19.016;2022-09-27T05:18:05;97692.72;;;11.59;100.00
42289;BME280;30230;47.520;19.016;2022-09-27T05:20:07;97690.84;;;11.60;100.00
42289;BME280;30230;47.520;19.016;2022-09-27T05:22:09;97690.03;;;11.59;100.00
42289;BME280;30230;47.520;19.016;2022-09-27T05:24:10;97686.59;;;11.47;100.00
42289;BME280;30230;47.520;19.016;2022-09-27T05:26:11;97686.03;;;11.45;100.00
42289;BME280;30230;47.520;19.016;2022-09-27T05:28:11;97686.91;;;11.51;100.00
42289;BME280;30230;47.520;19.016;2022-09-27T05:30:12;97680.34;;;11.63;100.00
42289;BME280;30230;47.520;19.016;2022-09-27T05:32:13;97685.69;;;11.97;100.00
42289;BME280;30230;47.520;19.016;2022-09-27T05:34:13;97667.25;;;12.16;100.00
42289;BME280;30230;47.520;19.016;2022-09-27T05:36:14;97674.94;;;12.02;100.00
42289;BME280;30230;47.520;19.016;2022-09-27T05:38:15;97652.72;;;12.00;100.00
42289;BME280;30230;47.520;19.016;2022-09-27T05:40:16;97652.34;;;11.91;100.00
42289;BME280;30230;47.520;19.016;2022-09-27T05:42:17;97652.28;;;11.86;100.00
42289;BME280;30230;47.520;19.016;2022-09-27T05:44:18;97662.84;;;11.88;100.00
42289;BME280;30230;47.520;19.016;2022-09-27T05:46:18;97650.44;;;11.92;100.00
42289;BME280;30230;47.520;19.016;2022-09-27T05:48:19;97660.19;;;11.93;100.00
42289;BME280;30230;47.520;19.016;2022-09-27T05:50:21;97645.34;;;11.95;100.00
42289;BME280;30230;47.520;19.016;2022-09-27T05:52:21;97647.06;;;12.02;100.00
42289;BME280;30230;47.520;19.016;2022-09-27T05:54:22;97645.97;;;12.03;100.00
42289;BME280;30230;47.520;19.016;2022-09-27T05:56:22;97642.72;;;12.01;100.00
42289;BME280;30230;47.520;19.016;2022-09-27T05:58:24;97650.25;;;11.98;100.00
42289;BME280;30230;47.520;19.016;2022-09-27T06:00:25;97651.91;;;11.99;100.00
42289;BME280;30230;47.520;19.016;2022-09-27T06:02:26;97655.16;;;12.02;100.00
42289;BME280;30230;47.520;19.016;2022-09-27T06:04:26;97661.88;;;11.99;100.00
42289;BME280;30230;47.520;19.016;2022-09-27T06:06:27;97672.47;;;12.01;100.00
42289;BME280;30230;47.520;19.016;2022-09-27T06:08:27;97671.91;;;11.98;100.00
42289;BME280;30230;47.520;19.016;2022-09-27T06:10:29;97671.41;;;12.02;100.00
42289;BME280;30230;47.520;19.016;2022-09-27T06:12:29;97669.50;;;12.02;100.00
42289;BME280;30230;47.520;19.016;2022-09-27T06:14:30;97663.09;;;12.08;100.00
42289;BME280;30230;47.520;19.016;2022-09-27T06:16:30;97667.19;;;12.11;100.00
42289;BME280;30230;47.520;19.016;2022-09-27T06:18:31;97665.31;;;12.11;100.00
42289;BME280;30230;47.520;19.016;2022-09-27T06:20:32;97672.66;;;12.16;100.00
42289;BME280;30230;47.520;19.016;2022-09-27T06:22:33;97666.72;;;12.19;100.00
42289;BME280;30230;47.520;19.016;2022-09-27T06:24:35;97658.06;;;12.17;100.00
42289;BME280;30230;47.520;19.016;2022-09-27T06:26:35;97661.16;;;12.25;100.00
42289;BME280;30230;47.520;19.016;2022-09-27T06:28:36;97660.56;;;12.23;100.00
42289;BME280;30230;47.520;19.016;2022-09-27T06:30:42;97657.41;;;12.32;100.00
42289;BME280;30230;47.520;19.016;2022-09-27T06:32:42;97659.31;;;12.31;100.00
42289;BME280;30230;47.520;19.016;2022-09-27T06:34:43;97662.84;;;12.32;100.00
42289;BME280;30230;47.520;19.016;2022-09-27T06:36:44;97665.22;;;12.28;100.00
42289;BME280;30230;47.520;19.016;2022-09-27T06:38:46;97669.00;;;12.27;100.00
42289;BME280;30230;47.520;19.016;2022-09-27T06:40:48;97660.88;;;12.27;100.00
42289;BME280;30230;47.520;19.016;2022-09-27T06:42:49;97656.03;;;12.29;100.00
42289;BME280;30230;47.520;19.016;2022-09-27T06:44:49;97659.84;;;12.33;100.00
42289;BME280;30230;47.520;19.016;2022-09-27T06:46:53;97653.38;;;12.34;100.00
42289;BME280;30230;47.520;19.016;2022-09-27T06:48:54;97652.06;;;12.37;100.00
42289;BME280;30230;47.520;19.016;2022-09-27T06:50:56;97646.66;;;12.37;100.00
42289;BME280;30230;47.520;19.016;2022-09-27T06:52:57;97637.94;;;12.35;100.00
42289;BME280;30230;47.520;19.016;2022-09-27T06:54:58;97640.53;;;12.46;100.00
42289;BME280;30230;47.520;19.016;2022-09-27T06:56:58;97646.16;;;12.45;100.00
42289;BME280;30230;47.520;19.016;2022-09-27T06:58:58;97640.69;;;12.40;100.00
42289;BME280;30230;47.520;19.016;2022-09-27T07:01:17;97646.44;;;12.43;100.00
42289;BME280;30230;47.520;19.016;2022-09-27T07:03:19;97659.22;;;12.48;100.00
42289;BME280;30230;47.520;19.016;2022-09-27T07:05:22;97664.63;;;12.48;100.00
42289;BME280;30230;47.520;19.016;2022-09-27T07:07:22;97665.44;;;12.48;100.00
42289;BME280;30230;47.520;19.016;2022-09-27T07:09:23;97672.47;;;12.49;100.00
42289;BME280;30230;47.520;19.016;2022-09-27T07:11:24;97680.06;;;12.47;100.00
42289;BME280;30230;47.520;19.016;2022-09-27T07:13:25;97675.19;;;12.49;100.00
42289;BME280;30230;47.520;19.016;2022-09-27T07:15:29;97672.25;;;12.51;100.00
42289;BME280;30230;47.520;19.016;2022-09-27T07:17:29;97672.81;;;12.53;100.00
42289;BME280;30230;47.520;19.016;2022-09-27T07:19:30;97677.13;;;12.54;100.00
42289;BME280;30230;47.520;19.016;2022-09-27T07:21:30;97670.69;;;12.60;100.00
42289;BME280;30230;47.520;19.016;2022-09-27T07:23:32;97666.78;;;12.73;100.00
42289;BME280;30230;47.520;19.016;2022-09-27T07:25:33;97662.16;;;12.73;100.00
42289;BME280;30230;47.520;19.016;2022-09-27T07:27:34;97660.59;;;12.77;100.00
42289;BME280;30230;47.520;19.016;2022-09-27T07:29:34;97671.22;;;12.84;100.00
42289;BME280;30230;47.520;19.016;2022-09-27T07:31:35;97674.72;;;12.85;100.00
42289;BME280;30230;47.520;19.016;2022-09-27T07:33:37;97667.78;;;12.94;100.00
42289;BME280;30230;47.520;19.016;2022-09-27T07:35:39;97675.38;;;12.97;100.00
42289;BME280;30230;47.520;19.016;2022-09-27T07:37:40;97683.31;;;13.03;100.00
42289;BME280;30230;47.520;19.016;2022-09-27T07:39:40;97675.25;;;13.14;100.00
42289;BME280;30230;47.520;19.016;2022-09-27T07:41:44;97674.81;;;13.22;100.00
42289;BME280;30230;47.520;19.016;2022-09-27T07:43:44;97667.78;;;13.26;100.00
42289;BME280;30230;47.520;19.016;2022-09-27T07:45:45;97661.84;;;13.29;100.00
42289;BME280;30230;47.520;19.016;2022-09-27T07:47:45;97664.88;;;13.38;100.00
42289;BME280;30230;47.520;19.016;2022-09-27T07:49:46;97663.31;;;13.47;100.00
42289;BME280;30230;47.520;19.016;2022-09-27T07:51:47;97668.19;;;13.45;100.00
42289;BME280;30230;47.520;19.016;2022-09-27T07:53:47;97649.47;;;13.43;100.00
42289;BME280;30230;47.520;19.016;2022-09-27T07:55:51;97654.44;;;13.57;100.00
42289;BME280;30230;47.520;19.016;2022-09-27T07:58:02;97653.41;;;13.68;100.00
42289;BME280;30230;47.520;19.016;2022-09-27T08:00:08;97647.16;;;13.67;100.00
42289;BME280;30230;47.520;19.016;2022-09-27T08:02:12;97658.59;;;13.74;100.00
42289;BME280;30230;47.520;19.016;2022-09-27T08:04:14;97660.22;;;13.70;100.00
42289;BME280;30230;47.520;19.016;2022-09-27T08:06:14;97660.44;;;13.64;100.00
42289;BME280;30230;47.520;19.016;2022-09-27T08:08:15;97650.44;;;13.74;100.00
42289;BME280;30230;47.520;19.016;2022-09-27T08:10:16;97643.47;;;13.89;100.00
42289;BME280;30230;47.520;19.016;2022-09-27T08:12:16;97629.63;;;13.90;100.00
42289;BME280;30230;47.520;19.016;2022-09-27T08:14:18;97633.22;;;13.96;100.00
42289;BME280;30230;47.520;19.016;2022-09-27T08:16:19;97639.44;;;13.91;100.00
42289;BME280;30230;47.520;19.016;2022-09-27T08:18:21;97647.34;;;14.03;100.00
42289;BME280;30230;47.520;19.016;2022-09-27T08:20:23;97652.22;;;13.96;100.00
42289;BME280;30230;47.520;19.016;2022-09-27T08:22:23;97649.47;;;13.91;100.00
42289;BME280;30230;47.520;19.016;2022-09-27T08:24:24;97661.97;;;13.92;100.00
42289;BME280;30230;47.520;19.016;2022-09-27T08:26:26;97658.44;;;13.91;100.00
42289;BME280;30230;47.520;19.016;2022-09-27T08:28:27;97655.13;;;13.84;100.00
42289;BME280;30230;47.520;19.016;2022-09-27T08:30:28;97659.72;;;13.84;100.00
42289;BME280;30230;47.520;19.016;2022-09-27T08:32:31;97668.38;;;13.75;100.00
42289;BME280;30230;47.520;19.016;2022-09-27T08:34:31;97647.66;;;13.59;100.00
42289;BME280;30230;47.520;19.016;2022-09-27T08:36:32;97660.44;;;13.64;100.00
42289;BME280;30230;47.520;19.016;2022-09-27T08:38:35;97659.34;;;13.60;100.00
42289;BME280;30230;47.520;19.016;2022-09-27T08:45:38;97626.19;;;13.52;100.00
42289;BME280;30230;47.520;19.016;2022-09-27T08:49:54;97638.19;;;13.62;100.00
42289;BME280;30230;47.520;19.016;2022-09-27T08:51:58;97632.28;;;13.70;100.00
42289;BME280;30230;47.520;19.016;2022-09-27T08:54:05;97639.06;;;13.77;100.00
42289;BME280;30230;47.520;19.016;2022-09-27T08:56:08;97637.50;;;13.87;100.00
42289;BME280;30230;47.520;19.016;2022-09-27T09:00:15;97640.47;;;13.85;100.00
42289;BME280;30230;47.520;19.016;2022-09-27T09:02:18;97641.31;;;13.86;100.00
42289;BME280;30230;47.520;19.016;2022-09-27T09:04:30;97646.72;;;13.86;100.00
42289;BME280;30230;47.520;19.016;2022-09-27T09:16:09;97629.81;;;13.68;100.00
42289;BME280;30230;47.520;19.016;2022-09-27T09:27:27;97608.41;;;13.72;100.00
42289;BME280;30230;47.520;19.016;2022-09-27T09:32:03;97598.06;;;13.74;100.00
42289;BME280;30230;47.520;19.016;2022-09-27T09:34:24;97593.47;;;13.74;100.00
42289;BME280;30230;47.520;19.016;2022-09-27T09:36:33;97589.97;;;13.79;100.00
42289;BME280;30230;47.520;19.016;2022-09-27T09:43:34;97599.56;;;14.02;100.00
42289;BME280;30230;47.520;19.016;2022-09-27T09:45:41;97595.75;;;14.03;100.00
42289;BME280;30230;47.520;19.016;2022-09-27T09:47:50;97598.44;;;13.93;100.00
42289;BME280;30230;47.520;19.016;2022-09-27T09:49:57;97600.06;;;13.94;100.00
42289;BME280;30230;47.520;19.016;2022-09-27T09:52:25;97597.06;;;13.95;100.00
42289;BME280;30230;47.520;19.016;2022-09-27T09:55:25;97591.13;;;13.98;100.00
42289;BME280;30230;47.520;19.016;2022-09-27T09:57:12;97587.31;;;13.99;100.00
42289;BME280;30230;47.520;19.016;2022-09-27T09:59:18;97580.53;;;13.97;100.00
42289;BME280;30230;47.520;19.016;2022-09-27T10:01:28;97583.50;;;13.95;100.00
42289;BME280;30230;47.520;19.016;2022-09-27T10:03:31;97584.31;;;13.86;100.00
42289;BME280;30230;47.520;19.016;2022-09-27T10:05:31;97587.03;;;13.86;100.00
42289;BME280;30230;47.520;19.016;2022-09-27T10:07:35;97584.03;;;13.87;100.00
42289;BME280;30230;47.520;19.016;2022-09-27T10:09:38;97586.50;;;13.94;100.00
42289;BME280;30230;47.520;19.016;2022-09-27T10:11:41;97576.97;;;13.86;100.00
42289;BME280;30230;47.520;19.016;2022-09-27T10:13:42;97583.75;;;13.84;100.00
42289;BME280;30230;47.520;19.016;2022-09-27T10:15:50;97578.28;;;13.78;100.00
42289;BME280;30230;47.520;19.016;2022-09-27T10:17:56;97577.50;;;13.83;100.00
42289;BME280;30230;47.520;19.016;2022-09-27T10:19:57;97572.06;;;13.83;100.00
42289;BME280;30230;47.520;19.016;2022-09-27T10:22:02;97572.34;;;13.81;100.00
42289;BME280;30230;47.520;19.016;2022-09-27T10:24:15;97567.72;;;13.82;100.00
42289;BME280;30230;47.520;19.016;2022-09-27T10:26:17;97562.00;;;13.73;100.00
42289;BME280;30230;47.520;19.016;2022-09-27T10:30:34;97561.44;;;13.71;100.00
42289;BME280;30230;47.520;19.016;2022-09-27T10:32:35;97564.19;;;13.76;100.00
42289;BME280;30230;47.520;19.016;2022-09-27T10:34:39;97562.56;;;13.80;100.00
42289;BME280;30230;47.520;19.016;2022-09-27T10:36:40;97555.25;;;13.81;100.00
42289;BME280;30230;47.520;19.016;2022-09-27T10:38:53;97558.78;;;13.81;100.00
42289;BME280;30230;47.520;19.016;2022-09-27T10:40:56;97550.88;;;13.80;100.00
42289;BME280;30230;47.520;19.016;2022-09-27T10:42:57;97549.53;;;13.77;100.00
42289;BME280;30230;47.520;19.016;2022-09-27T10:47:22;97550.06;;;13.79;100.00
42289;BME280;30230;47.520;19.016;2022-09-27T10:49:31;97548.47;;;13.84;100.00
42289;BME280;30230;47.520;19.016;2022-09-27T10:51:33;97557.97;;;13.86;100.00
42289;BME280;30230;47.520;19.016;2022-09-27T10:53:35;97555.81;;;13.88;100.00
42289;BME280;30230;47.520;19.016;2022-09-27T10:55:36;97553.63;;;13.90;100.00
42289;BME280;30230;47.520;19.016;2022-09-27T10:57:37;97550.09;;;13.85;100.00
42289;BME280;30230;47.520;19.016;2022-09-27T10:59:40;97551.75;;;13.91;100.00
42289;BME280;30230;47.520;19.016;2022-09-27T11:01:44;97542.78;;;13.90;100.00
42289;BME280;30230;47.520;19.016;2022-09-27T11:03:48;97548.75;;;13.92;100.00
42289;BME280;30230;47.520;19.016;2022-09-27T11:05:49;97541.69;;;13.86;100.00
42289;BME280;30230;47.520;19.016;2022-09-27T11:07:58;97540.91;;;13.91;100.00
42289;BME280;30230;47.520;19.016;2022-09-27T11:09:59;97544.19;;;14.08;100.00
42289;BME280;30230;47.520;19.016;2022-09-27T11:12:09;97538.19;;;13.96;100.00
42289;BME280;30230;47.520;19.016;2022-09-27T11:14:21;97526.50;;;13.90;100.00
42289;BME280;30230;47.520;19.016;2022-09-27T11:16:41;97530.59;;;13.98;100.00
42289;BME280;30230;47.520;19.016;2022-09-27T11:21:21;97522.97;;;13.95;100.00
42289;BME280;30230;47.520;19.016;2022-09-27T11:23:38;97526.78;;;13.99;100.00
42289;BME280;30230;47.520;19.016;2022-09-27T11:26:16;97522.44;;;13.98;100.00
42289;BME280;30230;47.520;19.016;2022-09-27T11:43:04;97505.69;;;14.52;100.00
42289;BME280;30230;47.520;19.016;2022-09-27T11:55:53;97477.41;;;14.89;100.00
42289;BME280;30230;47.520;19.016;2022-09-27T11:58:05;97479.03;;;14.95;100.00
42289;BME280;30230;47.520;19.016;2022-09-27T12:00:21;97471.94;;;14.94;100.00
42289;BME280;30230;47.520;19.016;2022-09-27T12:07:41;97456.19;;;14.96;100.00
42289;BME280;30230;47.520;19.016;2022-09-27T12:09:47;97449.13;;;14.95;100.00
42289;BME280;30230;47.520;19.016;2022-09-27T12:16:16;97450.22;;;14.89;100.00
42289;BME280;30230;47.520;19.016;2022-09-27T12:20:27;97439.88;;;14.91;100.00
42289;BME280;30230;47.520;19.016;2022-09-27T12:22:37;97450.75;;;14.96;100.00
42289;BME280;30230;47.520;19.016;2022-09-27T12:24:39;97441.19;;;14.98;100.00
42289;BME280;30230;47.520;19.016;2022-09-27T12:26:41;97431.69;;;15.06;100.00
42289;BME280;30230;47.520;19.016;2022-09-27T12:28:52;97436.28;;;15.10;100.00
42289;BME280;30230;47.520;19.016;2022-09-27T12:31:02;97434.91;;;15.08;100.00
42289;BME280;30230;47.520;19.016;2022-09-27T12:33:16;97424.84;;;15.14;100.00
42289;BME280;30230;47.520;19.016;2022-09-27T12:35:22;97424.00;;;15.18;100.00
42289;BME280;30230;47.520;19.016;2022-09-27T12:37:34;97424.59;;;15.15;100.00
42289;BME280;30230;47.520;19.016;2022-09-27T12:39:53;97427.34;;;15.05;100.00